createdAt,value
2018-04-06T00:02:25.754Z,48.40
2018-04-06T00:07:28.649Z,48.40
2018-04-06T00:12:31.190Z,48.40
2018-04-06T00:17:34.501Z,48.40
2018-04-06T00:22:37.777Z,48.40
2018-04-06T00:27:40.269Z,48.40
2018-04-06T00:32:42.774Z,48.40
2018-04-06T00:37:45.283Z,48.50
2018-04-06T00:42:47.823Z,48.40
2018-04-06T00:47:50.575Z,48.50
2018-04-06T00:52:53.134Z,48.50
2018-04-06T00:57:55.679Z,48.60
2018-04-06T01:02:58.530Z,48.80
2018-04-06T01:08:01.065Z,48.70
2018-04-06T01:13:04.459Z,49.40
2018-04-06T01:18:06.988Z,48.90
2018-04-06T01:23:10.560Z,48.90
2018-04-06T01:28:14.113Z,48.90
2018-04-06T01:33:16.695Z,49.00
2018-04-06T01:38:19.202Z,48.90
2018-04-06T01:43:22.492Z,49.20
2018-04-06T01:48:25.362Z,49.00
2018-04-06T01:53:27.919Z,49.10
2018-04-06T01:58:30.804Z,49.20
2018-04-06T02:03:33.358Z,49.20
2018-04-06T02:08:36.412Z,49.20
2018-04-06T02:13:39.854Z,49.30
2018-04-06T02:18:42.437Z,49.20
2018-04-06T02:23:44.954Z,49.20
2018-04-06T02:28:47.451Z,49.30
2018-04-06T02:33:49.957Z,49.30
2018-04-06T02:38:52.459Z,49.40
2018-04-06T02:43:54.995Z,49.30
2018-04-06T02:48:58.308Z,49.20
2018-04-06T02:54:00.982Z,49.40
2018-04-06T02:59:03.684Z,49.30
2018-04-06T03:04:06.446Z,49.30
2018-04-06T03:09:08.981Z,49.30
2018-04-06T03:14:11.681Z,49.20
2018-04-06T03:19:15.305Z,49.40
2018-04-06T03:24:17.961Z,49.30
2018-04-06T03:29:20.917Z,49.30
2018-04-06T03:34:23.537Z,49.20
2018-04-06T03:39:26.201Z,49.20
2018-04-06T03:44:28.734Z,49.20
2018-04-06T03:49:31.668Z,49.20
2018-04-06T03:54:34.410Z,49.20
2018-04-06T03:59:37.596Z,49.20
2018-04-06T04:04:40.158Z,49.20
2018-04-06T04:09:42.792Z,49.20
2018-04-06T04:14:45.396Z,49.20
2018-04-06T04:19:48.700Z,49.20
2018-04-06T04:24:52.116Z,49.20
2018-04-06T04:29:55.414Z,49.20
2018-04-06T04:34:57.944Z,49.20
2018-04-06T04:40:00.518Z,49.10
2018-04-06T04:45:03.064Z,49.10
2018-04-06T04:50:05.804Z,49.10
2018-04-06T04:55:08.357Z,49.10
2018-04-06T05:00:10.880Z,49.00
2018-04-06T05:05:13.430Z,49.00
2018-04-06T05:10:16.934Z,48.80
2018-04-06T05:15:19.552Z,48.80
2018-04-06T05:20:22.108Z,48.60
2018-04-06T05:25:25.618Z,48.50
2018-04-06T05:30:28.146Z,48.40
2018-04-06T05:35:30.813Z,48.30
2018-04-06T05:40:34.145Z,47.80
2018-04-06T05:45:36.686Z,47.70
2018-04-06T05:50:39.427Z,45.70
2018-04-06T05:55:42.273Z,47.30
2018-04-06T06:00:45.271Z,47.80
2018-04-06T06:05:47.994Z,47.80
2018-04-06T06:10:50.914Z,47.80
2018-04-06T06:15:54.431Z,47.80
2018-04-06T06:20:57.000Z,47.70
2018-04-06T06:25:59.753Z,47.70
2018-04-06T06:31:03.150Z,47.70
2018-04-06T06:36:05.747Z,47.70
2018-04-06T06:41:09.169Z,47.50
2018-04-06T06:46:11.765Z,47.50
2018-04-06T06:51:14.345Z,47.20
2018-04-06T06:56:17.757Z,45.70
2018-04-06T07:01:21.307Z,46.80
2018-04-06T07:06:23.836Z,46.80
2018-04-06T07:11:26.389Z,47.20
2018-04-06T07:16:28.934Z,46.70
2018-04-06T07:21:31.613Z,44.20
2018-04-06T07:26:34.521Z,38.60
2018-04-06T07:31:37.033Z,36.60
2018-04-06T07:36:39.690Z,35.60
2018-04-06T07:41:42.195Z,34.20
2018-04-06T07:46:44.711Z,31.80
2018-04-06T07:51:47.380Z,34.90
2018-04-06T07:56:50.143Z,34.60
2018-04-06T08:01:53.854Z,35.00
2018-04-06T08:06:56.564Z,35.00
2018-04-06T08:11:59.216Z,35.90
2018-04-06T08:17:01.967Z,35.80
2018-04-06T08:22:04.559Z,36.50
2018-04-06T08:27:07.085Z,36.70
2018-04-06T08:32:09.699Z,37.10
2018-04-06T08:37:12.918Z,37.70
2018-04-06T08:42:15.695Z,37.70
2018-04-06T08:47:18.568Z,37.80
2018-04-06T08:52:21.084Z,37.80
2018-04-06T08:57:23.732Z,38.00
2018-04-06T09:02:26.377Z,38.50
2018-04-06T09:07:29.759Z,38.60
2018-04-06T09:12:33.014Z,38.10
2018-04-06T09:17:35.711Z,37.60
2018-04-06T09:22:38.419Z,37.40
2018-04-06T09:27:41.123Z,33.90
2018-04-06T09:32:43.696Z,35.40
2018-04-06T09:37:47.105Z,35.70
2018-04-06T09:42:49.733Z,35.80
2018-04-06T09:47:52.794Z,36.70
2018-04-06T09:52:55.402Z,36.80
2018-04-06T09:57:57.968Z,37.20
2018-04-06T10:03:03.475Z,37.70
2018-04-06T10:08:06.051Z,37.70
2018-04-06T10:13:09.023Z,38.10
2018-04-06T10:18:13.201Z,38.30
2018-04-06T10:23:16.015Z,38.50
2018-04-06T10:28:18.660Z,38.60
2018-04-06T10:33:21.337Z,39.10
2018-04-06T10:38:24.430Z,39.10
2018-04-06T10:43:27.218Z,39.30
2018-04-06T10:48:29.769Z,39.40
2018-04-06T10:53:32.740Z,39.60
2018-04-06T10:58:35.456Z,39.70
2018-04-06T11:03:38.219Z,39.70
2018-04-06T11:08:41.058Z,39.90
2018-04-06T11:13:47.125Z,40.60
2018-04-06T11:18:49.876Z,41.00
2018-04-06T11:23:52.411Z,41.10
2018-04-06T11:28:54.940Z,41.20
2018-04-06T11:33:57.991Z,41.40
2018-04-06T11:39:00.529Z,41.30
2018-04-06T11:44:03.218Z,41.30
2018-04-06T11:49:05.807Z,41.30
2018-04-06T11:54:09.793Z,41.50
2018-04-06T11:59:12.704Z,41.40
2018-04-06T12:04:15.534Z,41.40
2018-04-06T12:09:18.132Z,41.40
2018-04-06T12:14:20.678Z,41.50
2018-04-06T12:19:23.204Z,41.70
2018-04-06T12:24:25.731Z,41.80
2018-04-06T12:29:28.470Z,41.80
2018-04-06T12:34:31.302Z,42.10
2018-04-06T12:39:33.877Z,42.20
2018-04-06T12:44:36.934Z,42.40
2018-04-06T12:49:39.474Z,42.50
2018-04-06T12:54:42.093Z,42.60
2018-04-06T12:59:44.634Z,42.60
2018-04-06T13:04:47.193Z,42.70
2018-04-06T13:09:49.816Z,43.00
2018-04-06T13:14:52.376Z,43.00
2018-04-06T13:19:55.723Z,43.20
2018-04-06T13:24:58.385Z,43.20
2018-04-06T13:30:01.922Z,43.40
2018-04-06T13:35:05.996Z,43.40
2018-04-06T13:40:08.571Z,43.50
2018-04-06T13:45:11.122Z,43.60
2018-04-06T13:50:14.680Z,44.00
2018-04-06T13:55:17.265Z,44.00
2018-04-06T14:00:19.846Z,44.10
2018-04-06T14:05:22.446Z,44.10
2018-04-06T14:10:25.013Z,44.30
2018-04-06T14:15:27.942Z,44.30
2018-04-06T14:20:31.331Z,44.40
2018-04-06T14:25:33.872Z,44.30
2018-04-06T14:30:36.436Z,44.00
2018-04-06T14:35:39.632Z,43.50
2018-04-06T14:40:42.950Z,42.90
2018-04-06T14:45:46.319Z,43.90
2018-04-06T14:50:49.002Z,43.30
2018-04-06T14:55:51.532Z,43.20
2018-04-06T15:00:54.372Z,43.10
2018-04-06T15:05:57.019Z,42.70
2018-04-06T15:10:59.604Z,43.20
2018-04-06T15:16:02.156Z,43.30
2018-04-06T15:21:04.991Z,43.60
2018-04-06T15:26:08.291Z,43.60
2018-04-06T15:31:10.857Z,43.80
2018-04-06T15:36:13.386Z,43.80
2018-04-06T15:41:16.261Z,43.80
2018-04-06T15:46:20.401Z,43.90
2018-04-06T15:51:23.093Z,43.90
2018-04-06T15:56:25.718Z,43.80
2018-04-06T16:01:28.278Z,43.80
2018-04-06T16:06:30.935Z,43.70
2018-04-06T16:11:33.522Z,43.70
2018-04-06T16:16:36.244Z,43.60
2018-04-06T16:21:39.647Z,43.70
2018-04-06T16:26:42.362Z,43.60
2018-04-06T16:31:45.810Z,43.60
2018-04-06T16:36:48.410Z,43.60
2018-04-06T16:41:50.952Z,43.60
2018-04-06T16:46:53.640Z,43.60
2018-04-06T16:51:57.095Z,43.60
2018-04-06T16:56:59.752Z,43.60
2018-04-06T17:02:02.618Z,43.60
2018-04-06T17:07:05.591Z,43.70
2018-04-06T17:12:08.129Z,43.60
2018-04-06T17:17:11.654Z,43.60
2018-04-06T17:22:14.253Z,43.60
2018-04-06T17:27:16.806Z,43.60
2018-04-06T17:32:19.344Z,43.70
2018-04-06T17:37:21.893Z,43.60
2018-04-06T17:42:24.477Z,43.60
2018-04-06T17:47:26.991Z,43.60
2018-04-06T17:52:29.566Z,43.70
2018-04-06T17:57:32.127Z,43.70
2018-04-06T18:02:34.732Z,43.70
2018-04-06T18:07:37.228Z,43.60
2018-04-06T18:12:39.732Z,43.70
2018-04-06T18:17:44.381Z,43.70
2018-04-06T18:22:47.493Z,43.60
2018-04-06T18:27:50.064Z,43.70
2018-04-06T18:32:53.346Z,43.70
2018-04-06T18:37:55.976Z,43.60
2018-04-06T18:42:58.539Z,43.60
2018-04-06T18:48:01.271Z,43.50
2018-04-06T18:53:04.629Z,43.60
2018-04-06T18:58:08.033Z,43.60
2018-04-06T19:03:10.718Z,43.60
2018-04-06T19:08:13.305Z,43.60
2018-04-06T19:13:16.015Z,43.60
2018-04-06T19:18:18.874Z,43.60
2018-04-06T19:23:22.301Z,43.40
2018-04-06T19:28:25.730Z,43.50
2018-04-06T19:33:28.312Z,43.50
2018-04-06T19:38:31.763Z,43.30
2018-04-06T19:43:34.377Z,43.30
2018-04-06T19:48:36.999Z,43.30
2018-04-06T19:53:39.629Z,43.30
2018-04-06T19:58:42.388Z,43.70
2018-04-06T20:03:45.047Z,44.30
2018-04-06T20:08:47.585Z,44.60
2018-04-06T20:13:51.528Z,44.70
2018-04-06T20:18:54.870Z,44.50
2018-04-06T20:23:57.770Z,44.70
2018-04-06T20:29:00.692Z,45.10
2018-04-06T20:34:03.307Z,45.70
2018-04-06T20:39:06.151Z,45.50
2018-04-06T20:44:08.724Z,45.40
2018-04-06T20:49:11.291Z,45.20
2018-04-06T20:54:14.251Z,45.10
2018-04-06T20:59:16.792Z,45.00
2018-04-06T21:04:19.345Z,46.00
2018-04-06T21:09:22.048Z,45.90
2018-04-06T21:14:24.599Z,46.00
2018-04-06T21:19:27.900Z,46.20
2018-04-06T21:24:30.433Z,46.10
2018-04-06T21:29:34.168Z,46.30
2018-04-06T21:34:37.062Z,46.30
2018-04-06T21:39:39.706Z,46.30
2018-04-06T21:44:42.328Z,46.70
2018-04-06T21:49:45.499Z,47.00
2018-04-06T21:54:48.445Z,47.20
2018-04-06T21:59:50.983Z,47.10
2018-04-06T22:04:53.882Z,46.70
2018-04-06T22:09:56.412Z,47.30
2018-04-06T22:14:59.061Z,46.50
2018-04-06T22:20:01.761Z,47.20
2018-04-06T22:25:04.280Z,47.10
2018-04-06T22:30:06.808Z,47.20
2018-04-06T22:35:10.315Z,48.60
2018-04-06T22:40:12.933Z,48.60
2018-04-06T22:45:16.357Z,49.20
2018-04-06T22:50:18.888Z,49.20
2018-04-06T22:55:21.463Z,49.50
2018-04-06T23:00:23.979Z,49.60
2018-04-06T23:05:26.701Z,50.10
2018-04-06T23:10:29.226Z,50.10
2018-04-06T23:15:31.940Z,50.40
2018-04-06T23:20:35.541Z,50.50
2018-04-06T23:25:38.102Z,50.70
2018-04-06T23:30:40.634Z,50.60
2018-04-06T23:35:44.452Z,51.00
2018-04-06T23:40:47.049Z,51.00
2018-04-06T23:45:49.572Z,51.20
2018-04-06T23:50:52.312Z,51.20
2018-04-06T23:55:54.860Z,51.30
